createdAt,value
2023-07-21T00:00:24.621Z,96997.72
2023-07-21T00:02:53.383Z,96979.72
2023-07-21T00:05:20.332Z,96982.38
2023-07-21T00:07:49.564Z,96999.75
2023-07-21T00:10:16.749Z,96987.56
2023-07-21T00:12:48.781Z,96984.75
2023-07-21T00:15:18.937Z,96982.53
2023-07-21T00:17:51.410Z,96981.94
2023-07-21T00:20:23.687Z,96971.84
2023-07-21T00:22:50.862Z,96992.22
2023-07-21T00:25:18.077Z,96987.56
2023-07-21T00:27:45.664Z,96977.25
2023-07-21T00:30:13.046Z,96971.19
2023-07-21T00:32:40.984Z,96966.50
2023-07-21T00:35:10.150Z,96971.19
2023-07-21T00:37:38.611Z,96970.81
2023-07-21T00:40:11.549Z,96974.34
2023-07-21T00:42:38.907Z,96968.88
2023-07-21T00:45:06.359Z,96963.63
2023-07-21T00:47:35.596Z,96949.00
2023-07-21T00:50:02.984Z,96955.38
2023-07-21T00:52:29.923Z,96947.47
2023-07-21T00:54:56.864Z,96954.75
2023-07-21T00:57:24.831Z,96936.28
2023-07-21T00:59:52.304Z,96940.16
2023-07-21T01:02:19.693Z,96924.09
2023-07-21T01:04:47.758Z,96935.69
2023-07-21T01:07:15.997Z,96917.41
2023-07-21T01:09:44.668Z,96923.34
2023-07-21T01:12:12.609Z,96929.31
2023-07-21T01:14:39.490Z,96915.50
2023-07-21T01:17:09.491Z,96899.88
2023-07-21T01:19:39.023Z,96931.22
2023-07-21T01:22:26.217Z,96930.81
2023-07-21T01:24:55.960Z,96925.34
2023-07-21T01:27:25.618Z,96922.94
2023-07-21T01:29:54.075Z,96912.78
2023-07-21T01:32:23.351Z,96930.13
2023-07-21T01:34:51.693Z,96915.72
2023-07-21T01:37:19.856Z,96902.66
2023-07-21T01:39:49.199Z,96907.59
2023-07-21T01:42:16.334Z,96913.72
2023-07-21T01:44:44.742Z,96912.91
2023-07-21T01:47:11.609Z,96913.94
2023-07-21T01:49:38.533Z,96906.38
2023-07-21T01:52:05.755Z,96901.97
2023-07-21T01:54:47.209Z,96911.91
2023-07-21T01:57:21.734Z,96912.72
2023-07-21T01:59:50.957Z,96889.13
2023-07-21T02:02:20.257Z,96897.25
2023-07-21T02:04:54.530Z,96909.88
2023-07-21T02:07:22.031Z,96911.34
2023-07-21T02:09:53.891Z,96908.47
2023-07-21T02:12:22.628Z,96908.25
2023-07-21T02:14:59.549Z,96896.06
2023-07-21T02:17:26.532Z,96908.84
2023-07-21T02:19:53.400Z,96885.28
2023-07-21T02:22:21.094Z,96895.59
2023-07-21T02:24:47.966Z,96904.50
2023-07-21T02:27:14.912Z,96897.75
2023-07-21T02:29:41.773Z,96898.97
2023-07-21T02:32:11.769Z,96882.09
2023-07-21T02:34:40.457Z,96876.78
2023-07-21T02:37:07.286Z,96892.22
2023-07-21T02:39:34.461Z,96876.56
2023-07-21T02:42:01.278Z,96886.69
2023-07-21T02:44:29.133Z,96891.75
2023-07-21T02:46:56.282Z,96888.53
2023-07-21T02:49:23.158Z,96875.84
2023-07-21T02:51:50.160Z,96859.97
2023-07-21T02:54:18.586Z,96851.25
2023-07-21T02:56:45.905Z,96855.72
2023-07-21T02:59:19.718Z,96867.09
2023-07-21T03:01:56.438Z,96860.34
2023-07-21T03:04:33.188Z,96868.91
2023-07-21T03:07:02.956Z,96861.81
2023-07-21T03:09:30.779Z,96869.53
2023-07-21T03:11:58.533Z,96859.53
2023-07-21T03:14:50.294Z,96859.75
2023-07-21T03:17:19.102Z,96852.69
2023-07-21T03:19:46.025Z,96856.50
2023-07-21T03:22:17.475Z,96868.09
2023-07-21T03:24:47.169Z,96863.22
2023-07-21T03:27:15.116Z,96861.03
2023-07-21T03:29:43.136Z,96849.59
2023-07-21T03:32:12.626Z,96850.25
2023-07-21T03:34:39.510Z,96868.16
2023-07-21T03:37:09.868Z,96857.16
2023-07-21T03:39:37.936Z,96856.63
2023-07-21T03:42:05.733Z,96865.94
2023-07-21T03:44:32.540Z,96864.13
2023-07-21T03:46:59.418Z,96872.09
2023-07-21T03:49:36.494Z,96858.63
2023-07-21T03:52:09.974Z,96856.78
2023-07-21T03:54:37.895Z,96848.00
2023-07-21T03:57:05.041Z,96865.50
2023-07-21T03:59:32.167Z,96855.13
2023-07-21T04:01:59.023Z,96858.81
2023-07-21T04:04:26.067Z,96862.41
2023-07-21T04:06:53.004Z,96861.81
2023-07-21T04:09:19.870Z,96845.16
2023-07-21T04:11:46.676Z,96864.00
2023-07-21T04:14:13.556Z,96866.81
2023-07-21T04:16:40.441Z,96858.63
2023-07-21T04:19:07.395Z,96853.53
2023-07-21T04:21:34.258Z,96856.84
2023-07-21T04:24:01.297Z,96843.22
2023-07-21T04:26:28.178Z,96859.59
2023-07-21T04:28:55.195Z,96854.88
2023-07-21T04:31:23.722Z,96864.41
2023-07-21T04:34:01.181Z,96860.03
2023-07-21T04:36:28.777Z,96853.94
2023-07-21T04:38:59.095Z,96867.69
2023-07-21T04:41:26.726Z,96852.56
2023-07-21T04:43:53.831Z,96843.69
2023-07-21T04:46:20.788Z,96853.94
2023-07-21T04:48:49.233Z,96859.41
2023-07-21T04:51:25.778Z,96856.19
2023-07-21T04:53:52.867Z,96840.00
2023-07-21T04:56:22.870Z,96856.97
2023-07-21T04:58:54.601Z,96864.63
2023-07-21T05:01:21.536Z,96855.25
2023-07-21T05:03:48.391Z,96851.25
2023-07-21T05:06:17.759Z,96865.03
2023-07-21T05:08:48.401Z,96869.44
2023-07-21T05:11:16.905Z,96862.03
2023-07-21T05:13:46.449Z,96859.38
2023-07-21T05:16:23.726Z,96861.69
2023-07-21T05:19:05.408Z,96859.84
2023-07-21T05:21:57.238Z,96859.72
2023-07-21T05:24:59.424Z,96849.50
2023-07-21T05:27:26.628Z,96855.78
2023-07-21T05:29:55.794Z,96841.31
2023-07-21T05:32:24.365Z,96857.53
2023-07-21T05:35:09.920Z,96854.66
2023-07-21T05:37:39.150Z,96847.41
2023-07-21T05:40:07.577Z,96857.34
2023-07-21T05:42:35.235Z,96858.97
2023-07-21T05:45:03.867Z,96858.06
2023-07-21T05:47:32.262Z,96855.75
2023-07-21T05:50:02.235Z,96842.09
2023-07-21T05:52:31.858Z,96852.28
2023-07-21T05:54:58.710Z,96862.81
2023-07-21T05:57:29.848Z,96849.38
2023-07-21T05:59:57.939Z,96859.47
2023-07-21T06:02:24.934Z,96846.53
2023-07-21T06:04:57.804Z,96831.22
2023-07-21T06:07:45.898Z,96850.13
2023-07-21T06:10:33.072Z,96834.94
2023-07-21T06:13:13.786Z,96831.22
2023-07-21T06:15:50.739Z,96836.66
2023-07-21T06:18:22.265Z,96832.34
2023-07-21T06:20:52.415Z,96827.84
2023-07-21T06:23:19.955Z,96834.31
2023-07-21T06:25:48.217Z,96830.09
2023-07-21T06:28:17.627Z,96826.44
2023-07-21T06:30:44.666Z,96815.38
2023-07-21T06:33:21.363Z,96822.59
2023-07-21T06:35:55.439Z,96808.91
2023-07-21T06:38:54.682Z,96815.00
2023-07-21T06:41:52.790Z,96816.44
2023-07-21T06:44:37.972Z,96812.97
2023-07-21T06:47:22.378Z,96799.94
2023-07-21T06:50:12.232Z,96809.31
2023-07-21T06:52:41.046Z,96800.88
2023-07-21T06:55:08.483Z,96813.75
2023-07-21T06:57:35.524Z,96802.16
2023-07-21T07:00:02.452Z,96798.06
2023-07-21T07:02:29.524Z,96802.00
2023-07-21T07:04:56.688Z,96787.28
2023-07-21T07:07:23.551Z,96804.44
2023-07-21T07:09:50.385Z,96812.97
2023-07-21T07:12:21.409Z,96803.19
2023-07-21T07:14:48.291Z,96786.66
2023-07-21T07:17:15.169Z,96782.78
2023-07-21T07:19:42.298Z,96792.56
2023-07-21T07:22:10.846Z,96792.69
2023-07-21T07:24:40.743Z,96794.25
2023-07-21T07:27:07.818Z,96801.13
2023-07-21T07:29:36.237Z,96808.84
2023-07-21T07:32:03.548Z,96802.28
2023-07-21T07:34:30.425Z,96809.09
2023-07-21T07:36:59.561Z,96801.34
2023-07-21T07:39:26.516Z,96793.53
2023-07-21T07:41:53.446Z,96800.00
2023-07-21T07:44:20.611Z,96790.34
2023-07-21T07:46:47.578Z,96790.03
2023-07-21T07:49:14.484Z,96770.41
2023-07-21T07:51:41.353Z,96783.28
2023-07-21T07:54:08.957Z,96780.28
2023-07-21T07:56:35.854Z,96759.88
2023-07-21T07:59:02.669Z,96776.97
2023-07-21T08:01:29.853Z,96777.22
2023-07-21T08:03:57.251Z,96764.28
2023-07-21T08:06:24.213Z,96773.91
2023-07-21T08:08:51.094Z,96751.56
2023-07-21T08:11:17.981Z,96768.06
2023-07-21T08:13:45.906Z,96767.16
2023-07-21T08:16:14.366Z,96769.66
2023-07-21T08:18:41.437Z,96765.66
2023-07-21T08:21:21.989Z,96755.50
2023-07-21T08:23:52.878Z,96756.31
2023-07-21T08:26:20.056Z,96766.75
2023-07-21T08:28:47.072Z,96766.50
2023-07-21T08:31:13.993Z,96774.91
2023-07-21T08:33:41.418Z,96780.91
2023-07-21T08:36:08.307Z,96771.09
2023-07-21T08:38:35.164Z,96782.56
2023-07-21T08:41:08.530Z,96781.16
2023-07-21T08:43:35.983Z,96769.59
2023-07-21T08:46:07.122Z,96791.88
2023-07-21T08:48:35.425Z,96796.22
2023-07-21T08:51:03.448Z,96783.53
2023-07-21T08:53:30.301Z,96792.22
2023-07-21T08:55:58.779Z,96789.16
2023-07-21T08:58:27.776Z,96790.56
2023-07-21T09:00:56.139Z,96784.94
2023-07-21T09:03:31.175Z,96801.09
2023-07-21T09:06:00.042Z,96791.56
2023-07-21T09:08:33.107Z,96799.09
2023-07-21T09:11:04.444Z,96801.25
2023-07-21T09:13:32.702Z,96792.94
2023-07-21T09:16:00.794Z,96802.53
2023-07-21T09:18:43.294Z,96789.75
2023-07-21T09:21:18.511Z,96791.53
2023-07-21T09:23:45.414Z,96782.94
2023-07-21T09:26:12.278Z,96779.47
2023-07-21T09:28:41.793Z,96794.28
2023-07-21T09:31:12.745Z,96790.44
2023-07-21T09:33:45.081Z,96787.94
2023-07-21T09:36:17.200Z,96774.19
2023-07-21T09:38:45.366Z,96780.84
2023-07-21T09:41:14.650Z,96774.63
2023-07-21T09:43:42.807Z,96783.69
2023-07-21T09:46:17.793Z,96780.03
2023-07-21T09:48:46.553Z,96773.78
2023-07-21T09:51:13.832Z,96761.31
2023-07-21T09:53:44.709Z,96760.72
2023-07-21T09:56:16.496Z,96769.59
2023-07-21T09:58:51.525Z,96766.97
2023-07-21T10:01:19.965Z,96771.44
2023-07-21T10:03:47.176Z,96708.72
2023-07-21T10:06:16.417Z,96751.47
2023-07-21T10:08:44.192Z,96747.97
2023-07-21T10:11:11.185Z,96756.00
2023-07-21T10:13:46.323Z,96741.91
2023-07-21T10:16:13.745Z,96729.69
2023-07-21T10:19:13.300Z,96727.97
2023-07-21T10:21:54.912Z,96713.66
2023-07-21T10:24:29.799Z,96724.63
2023-07-21T10:27:01.579Z,96709.69
2023-07-21T10:29:28.473Z,96716.69
2023-07-21T10:31:57.721Z,96715.28
2023-07-21T10:34:26.775Z,96718.41
2023-07-21T10:36:53.901Z,96717.00
2023-07-21T10:39:25.495Z,96698.53
2023-07-21T10:41:55.206Z,96681.09
2023-07-21T10:44:23.051Z,96705.00
2023-07-21T10:46:52.234Z,96709.31
2023-07-21T10:49:20.253Z,96716.19
2023-07-21T10:51:49.430Z,96701.25
2023-07-21T10:54:17.657Z,96720.19
2023-07-21T10:56:47.551Z,96703.16
2023-07-21T10:59:15.622Z,96714.28
2023-07-21T11:01:48.043Z,96695.25
2023-07-21T11:04:17.906Z,96689.31
2023-07-21T11:06:46.160Z,96705.59
2023-07-21T11:09:14.037Z,96699.22
2023-07-21T11:11:44.372Z,96701.28
2023-07-21T11:14:12.761Z,96712.31
2023-07-21T11:16:49.086Z,96708.28
2023-07-21T11:19:17.192Z,96683.66
2023-07-21T11:21:44.095Z,96708.81
2023-07-21T11:24:11.296Z,96686.31
2023-07-21T11:26:40.232Z,96696.53
2023-07-21T11:29:08.445Z,96702.91
2023-07-21T11:31:38.872Z,96703.97
2023-07-21T11:34:21.653Z,96698.81
2023-07-21T11:36:50.365Z,96702.13
2023-07-21T11:39:23.642Z,96695.19
2023-07-21T11:41:52.930Z,96701.44
2023-07-21T11:44:31.391Z,96651.47
2023-07-21T11:47:06.477Z,96706.88
2023-07-21T11:49:39.486Z,96679.72
2023-07-21T11:52:07.335Z,96692.34
2023-07-21T11:54:39.189Z,96696.03
2023-07-21T11:57:06.194Z,96691.41
2023-07-21T11:59:33.339Z,96665.19
2023-07-21T12:02:00.394Z,96684.50
2023-07-21T12:04:29.074Z,96674.38
2023-07-21T12:06:56.224Z,96689.75
2023-07-21T12:09:23.436Z,96672.44
2023-07-21T12:11:50.572Z,96678.72
2023-07-21T12:14:17.489Z,96688.94
2023-07-21T12:16:44.559Z,96699.38
2023-07-21T12:19:11.377Z,96687.25
2023-07-21T12:21:47.777Z,96670.16
2023-07-21T12:24:15.142Z,96698.78
2023-07-21T12:26:45.043Z,96684.03
2023-07-21T12:29:11.834Z,96699.91
2023-07-21T12:31:38.790Z,96681.81
2023-07-21T12:34:06.568Z,96686.75
2023-07-21T12:36:33.687Z,96683.59
2023-07-21T12:39:00.552Z,96689.00
2023-07-21T12:41:27.770Z,96674.31
2023-07-21T12:43:54.808Z,96666.16
2023-07-21T12:46:21.775Z,96679.56
2023-07-21T12:48:48.912Z,96687.66
2023-07-21T12:51:15.773Z,96695.78
2023-07-21T12:53:42.656Z,96685.78
2023-07-21T12:56:09.917Z,96687.88
2023-07-21T12:58:36.939Z,96686.94
2023-07-21T13:01:03.952Z,96671.25
2023-07-21T13:03:31.113Z,96663.50
2023-07-21T13:05:58.223Z,96686.41
2023-07-21T13:08:27.009Z,96682.25
2023-07-21T13:10:56.075Z,96693.28
2023-07-21T13:13:23.014Z,96682.84
2023-07-21T13:15:52.798Z,96654.97
2023-07-21T13:18:22.214Z,96641.91
2023-07-21T13:20:49.431Z,96675.72
2023-07-21T13:23:22.061Z,96665.94
2023-07-21T13:25:53.145Z,96652.34
2023-07-21T13:28:20.069Z,96676.94
2023-07-21T13:30:47.900Z,96676.44
2023-07-21T13:33:16.526Z,96658.94
2023-07-21T13:35:43.346Z,96665.59
2023-07-21T13:40:54.270Z,96665.47
2023-07-21T13:43:21.615Z,96647.19
2023-07-21T13:45:49.280Z,96650.34
2023-07-21T13:48:16.266Z,96648.13
2023-07-21T13:50:43.231Z,96650.38
2023-07-21T13:53:10.042Z,96646.22
2023-07-21T13:55:37.147Z,96647.22
2023-07-21T13:58:04.118Z,96652.22
2023-07-21T14:00:31.441Z,96656.19
2023-07-21T14:02:58.476Z,96632.50
2023-07-21T14:05:28.828Z,96662.28
2023-07-21T14:07:56.524Z,96644.81
2023-07-21T14:10:23.321Z,96658.72
2023-07-21T14:12:50.146Z,96630.69
2023-07-21T14:15:17.451Z,96638.16
2023-07-21T14:17:44.391Z,96645.72
2023-07-21T14:20:11.689Z,96638.84
2023-07-21T14:22:39.326Z,96640.84
2023-07-21T14:25:06.837Z,96631.53
2023-07-21T14:27:33.711Z,96635.47
2023-07-21T14:30:00.588Z,96651.28
2023-07-21T14:32:28.169Z,96633.56
2023-07-21T14:34:55.255Z,96653.41
2023-07-21T14:37:22.205Z,96637.69
2023-07-21T14:39:49.005Z,96637.16
2023-07-21T14:42:16.092Z,96621.19
2023-07-21T14:44:43.020Z,96634.31
2023-07-21T14:47:10.336Z,96651.63
2023-07-21T14:49:39.607Z,96625.63
2023-07-21T14:52:07.336Z,96649.19
2023-07-21T14:54:34.247Z,96634.69
2023-07-21T14:57:01.064Z,96635.53
2023-07-21T14:59:27.868Z,96645.28
2023-07-21T15:01:54.711Z,96609.69
2023-07-21T15:04:22.933Z,96613.94
2023-07-21T15:06:49.734Z,96624.25
2023-07-21T15:09:16.644Z,96652.88
2023-07-21T15:11:46.535Z,96622.53
2023-07-21T15:14:13.255Z,96649.59
2023-07-21T15:16:40.076Z,96647.00
2023-07-21T15:19:06.902Z,96644.69
2023-07-21T15:21:33.750Z,96636.38
2023-07-21T15:24:00.679Z,96646.00
2023-07-21T15:26:30.310Z,96634.88
2023-07-21T15:28:57.264Z,96654.00
2023-07-21T15:31:24.301Z,96661.63
2023-07-21T15:33:51.374Z,96653.69
2023-07-21T15:36:21.739Z,96654.00
2023-07-21T15:38:49.745Z,96649.78
2023-07-21T15:41:16.590Z,96623.44
2023-07-21T15:43:43.601Z,96648.75
2023-07-21T15:46:10.724Z,96645.94
2023-07-21T15:48:37.675Z,96638.84
2023-07-21T15:51:05.905Z,96652.22
2023-07-21T15:53:32.820Z,96659.00
2023-07-21T15:55:59.644Z,96659.03
2023-07-21T15:58:26.520Z,96660.41
2023-07-21T16:00:59.880Z,96676.84
2023-07-21T16:03:27.393Z,96667.13
2023-07-21T16:05:55.155Z,96686.59
2023-07-21T16:08:26.597Z,96683.59
2023-07-21T16:10:53.614Z,96672.84
2023-07-21T16:13:21.675Z,96694.50
2023-07-21T16:15:50.643Z,96684.38
2023-07-21T16:18:17.529Z,96691.50
2023-07-21T16:20:44.435Z,96691.81
2023-07-21T16:23:12.170Z,96711.94
2023-07-21T16:25:39.198Z,96679.41
2023-07-21T16:28:06.427Z,96695.16
2023-07-21T16:30:33.327Z,96727.38
2023-07-21T16:33:00.212Z,96703.88
2023-07-21T16:35:27.828Z,96725.13
2023-07-21T16:37:57.709Z,96740.22
2023-07-21T16:40:24.517Z,96719.31
2023-07-21T16:42:51.344Z,96747.28
2023-07-21T16:45:18.859Z,96755.09
2023-07-21T16:47:45.818Z,96750.28
2023-07-21T16:50:13.384Z,96756.41
2023-07-21T16:52:40.900Z,96759.47
2023-07-21T16:55:08.779Z,96761.53
2023-07-21T16:57:35.609Z,96745.34
2023-07-21T17:00:11.189Z,96768.50
2023-07-21T17:02:38.735Z,96757.84
2023-07-21T17:05:20.094Z,96779.38
2023-07-21T17:07:51.921Z,96781.03
2023-07-21T17:10:18.856Z,96770.88
2023-07-21T17:12:45.890Z,96802.69
2023-07-21T17:15:13.947Z,96802.94
2023-07-21T17:17:40.886Z,96814.00
2023-07-21T17:20:13.103Z,96836.00
2023-07-21T17:22:45.288Z,96845.91
2023-07-21T17:25:12.271Z,96831.09
2023-07-21T17:27:39.326Z,96822.97
2023-07-21T17:30:07.349Z,96784.63
2023-07-21T17:32:34.308Z,96838.06
2023-07-21T17:35:01.253Z,96861.19
2023-07-21T17:37:28.504Z,96847.38
2023-07-21T17:39:55.507Z,96883.47
2023-07-21T17:42:22.575Z,96876.00
2023-07-21T17:44:49.423Z,96899.94
2023-07-21T17:47:16.332Z,96920.34
2023-07-21T17:49:43.168Z,96918.06
2023-07-21T17:52:10.120Z,96924.56
2023-07-21T17:54:37.055Z,96921.41
2023-07-21T17:57:05.300Z,96936.56
2023-07-21T17:59:32.105Z,96926.28
2023-07-21T18:01:59.145Z,96937.78
2023-07-21T18:04:26.422Z,96933.28
2023-07-21T18:06:53.337Z,96943.31
2023-07-21T18:09:20.254Z,96928.06
2023-07-21T18:11:47.143Z,96929.50
2023-07-21T18:14:13.938Z,96935.00
2023-07-21T18:16:40.945Z,96911.94
2023-07-21T18:19:07.899Z,96937.69
2023-07-21T18:21:36.285Z,96950.69
2023-07-21T18:24:03.201Z,96941.91
2023-07-21T18:26:30.037Z,96949.22
2023-07-21T18:28:57.125Z,96948.44
2023-07-21T18:31:24.350Z,96951.44
2023-07-21T18:33:51.504Z,96952.84
2023-07-21T18:36:19.058Z,96939.31
2023-07-21T18:38:47.071Z,96959.22
2023-07-21T18:41:15.099Z,96956.53
2023-07-21T18:43:42.616Z,96946.50
2023-07-21T18:46:09.867Z,96945.91
2023-07-21T18:48:36.672Z,96958.75
2023-07-21T18:51:03.629Z,96946.84
2023-07-21T18:53:30.473Z,96956.69
2023-07-21T18:55:57.355Z,96965.66
2023-07-21T18:58:24.228Z,96977.56
2023-07-21T19:00:51.605Z,96983.03
2023-07-21T19:03:18.877Z,96985.56
2023-07-21T19:05:50.640Z,96987.88
2023-07-21T19:08:17.490Z,96996.41
2023-07-21T19:10:44.358Z,96981.69
2023-07-21T19:13:11.186Z,96992.22
2023-07-21T19:15:39.126Z,96991.75
2023-07-21T19:18:06.063Z,97008.97
2023-07-21T19:20:32.942Z,97009.56
2023-07-21T19:23:00.095Z,97014.19
2023-07-21T19:25:26.950Z,97017.31
2023-07-21T19:27:57.623Z,97014.94
2023-07-21T19:30:24.492Z,97027.69
2023-07-21T19:32:51.336Z,97025.19
2023-07-21T19:35:18.314Z,97033.50
2023-07-21T19:37:45.127Z,97055.63
2023-07-21T19:40:12.183Z,97054.06
2023-07-21T19:42:39.043Z,97040.06
2023-07-21T19:45:07.806Z,97059.91
2023-07-21T19:47:34.818Z,97063.06
2023-07-21T19:50:01.878Z,97058.28
2023-07-21T19:52:28.781Z,97062.47
2023-07-21T19:54:55.581Z,97072.16
2023-07-21T19:57:22.789Z,97071.03
2023-07-21T19:59:49.863Z,97084.53
2023-07-21T20:02:16.894Z,97078.75
2023-07-21T20:04:44.385Z,97084.28
2023-07-21T20:07:11.338Z,97087.25
2023-07-21T20:09:39.003Z,97084.25
2023-07-21T20:12:06.504Z,97069.50
2023-07-21T20:14:33.777Z,97092.38
2023-07-21T20:17:00.684Z,97075.69
2023-07-21T20:19:28.577Z,97092.44
2023-07-21T20:21:55.460Z,97075.19
2023-07-21T20:24:22.334Z,97078.13
2023-07-21T20:26:49.222Z,97095.88
2023-07-21T20:29:16.099Z,97093.28
2023-07-21T20:31:43.010Z,97094.97
2023-07-21T20:34:09.855Z,97103.16
2023-07-21T20:36:37.388Z,97115.41
2023-07-21T20:39:04.325Z,97119.72
2023-07-21T20:41:31.144Z,97101.81
2023-07-21T20:43:57.972Z,97114.09
2023-07-21T20:46:25.111Z,97118.38
2023-07-21T20:48:52.303Z,97117.81
2023-07-21T20:51:19.325Z,97134.13
2023-07-21T20:53:46.742Z,97135.75
2023-07-21T20:56:13.786Z,97139.84
2023-07-21T20:58:40.986Z,97133.94
2023-07-21T21:01:08.716Z,97140.28
2023-07-21T21:03:35.707Z,97148.22
2023-07-21T21:06:02.561Z,97147.63
2023-07-21T21:08:29.442Z,97146.63
2023-07-21T21:10:57.674Z,97164.16
2023-07-21T21:13:24.787Z,97164.97
2023-07-21T21:15:54.186Z,97157.44
2023-07-21T21:18:21.181Z,97154.38
2023-07-21T21:20:48.437Z,97156.63
2023-07-21T21:23:15.237Z,97147.47
2023-07-21T21:25:42.169Z,97154.16
2023-07-21T21:28:09.136Z,97133.59
2023-07-21T21:30:36.040Z,97172.50
2023-07-21T21:33:03.312Z,97179.66
2023-07-21T21:35:31.693Z,97171.91
2023-07-21T21:37:58.647Z,97186.19
2023-07-21T21:40:25.649Z,97165.34
2023-07-21T21:42:53.216Z,97173.72
2023-07-21T21:45:20.277Z,97190.84
2023-07-21T21:47:47.275Z,97194.31
2023-07-21T21:50:14.933Z,97197.97
2023-07-21T21:52:41.815Z,97170.84
2023-07-21T21:55:09.170Z,97190.22
2023-07-21T21:57:36.002Z,97182.84
2023-07-21T22:00:03.425Z,97193.44
2023-07-21T22:02:34.499Z,97187.47
2023-07-21T22:05:01.491Z,97168.50
2023-07-21T22:07:28.291Z,97195.59
2023-07-21T22:09:55.257Z,97183.56
2023-07-21T22:12:22.163Z,97202.09
2023-07-21T22:14:56.710Z,97186.81
2023-07-21T22:17:24.613Z,97173.38
2023-07-21T22:20:08.655Z,97192.88
2023-07-21T22:22:39.995Z,97207.56
2023-07-21T22:25:07.459Z,97202.03
2023-07-21T22:27:34.595Z,97206.50
2023-07-21T22:30:01.614Z,97206.28
2023-07-21T22:32:29.110Z,97200.97
2023-07-21T22:34:56.075Z,97206.44
2023-07-21T22:37:22.925Z,97224.97
2023-07-21T22:39:49.730Z,97222.88
2023-07-21T22:42:16.742Z,97233.88
2023-07-21T22:44:43.543Z,97214.69
2023-07-21T22:47:12.154Z,97217.31
2023-07-21T22:49:39.237Z,97205.84
2023-07-21T22:52:06.752Z,97240.72
2023-07-21T22:54:33.683Z,97233.38
2023-07-21T22:57:00.607Z,97233.75
2023-07-21T22:59:27.438Z,97234.31
2023-07-21T23:01:54.815Z,97231.88
2023-07-21T23:04:23.552Z,97251.63
2023-07-21T23:06:50.479Z,97260.94
2023-07-21T23:09:17.478Z,97257.88
2023-07-21T23:11:44.916Z,97239.09
2023-07-21T23:14:11.959Z,97242.91
2023-07-21T23:16:39.004Z,97237.03
2023-07-21T23:19:07.072Z,97266.50
2023-07-21T23:21:33.924Z,97241.00
2023-07-21T23:24:08.015Z,97256.91
2023-07-21T23:26:35.010Z,97257.50
2023-07-21T23:29:04.125Z,97256.84
2023-07-21T23:31:32.541Z,97237.88
2023-07-21T23:34:00.225Z,97237.59
2023-07-21T23:36:28.279Z,97251.22
2023-07-21T23:38:56.055Z,97239.19
2023-07-21T23:41:23.000Z,97248.91
2023-07-21T23:43:49.888Z,97247.22
2023-07-21T23:46:17.447Z,97256.41
2023-07-21T23:48:44.296Z,97257.59
2023-07-21T23:51:11.116Z,97238.78
2023-07-21T23:53:38.033Z,97227.53
2023-07-21T23:56:05.710Z,97256.72
2023-07-21T23:58:32.561Z,97258.94
